createdAt,value
2023-01-17T00:00:53.615Z,24.90
2023-01-17T00:03:24.993Z,25.70
2023-01-17T00:06:12.106Z,26.90
2023-01-17T00:08:59.039Z,22.80
2023-01-17T00:11:27.866Z,22.50
2023-01-17T00:13:56.767Z,25.40
2023-01-17T00:16:25.583Z,22.90
2023-01-17T00:19:12.585Z,26.30
2023-01-17T00:22:34.561Z,22.90
2023-01-17T00:25:21.669Z,24.60
2023-01-17T00:27:50.222Z,22.20
2023-01-17T00:30:18.898Z,25.30
2023-01-17T00:32:47.558Z,25.00
2023-01-17T00:35:16.962Z,24.90
2023-01-17T00:37:45.709Z,22.60
2023-01-17T00:40:14.535Z,21.60
2023-01-17T00:42:43.127Z,23.50
2023-01-17T00:45:30.225Z,24.40
2023-01-17T00:48:17.380Z,23.60
2023-01-17T00:51:04.620Z,19.80
2023-01-17T00:53:51.882Z,24.10
2023-01-17T00:56:38.972Z,23.50
2023-01-17T00:59:26.208Z,24.70
2023-01-17T01:02:20.948Z,25.10
2023-01-17T01:05:08.082Z,20.70
2023-01-17T01:07:55.191Z,22.90
2023-01-17T01:10:42.285Z,23.50
2023-01-17T01:13:29.331Z,24.70
2023-01-17T01:16:21.582Z,23.90
2023-01-17T01:19:08.441Z,16.60
2023-01-17T01:21:55.495Z,26.00
2023-01-17T01:24:42.839Z,22.60
2023-01-17T01:27:29.981Z,24.60
2023-01-17T01:30:17.055Z,23.30
2023-01-17T01:33:04.475Z,23.80
2023-01-17T01:35:33.304Z,24.20
2023-01-17T01:38:03.546Z,26.50
2023-01-17T01:40:32.407Z,24.60
2023-01-17T01:43:05.849Z,25.20
2023-01-17T01:45:34.781Z,25.70
2023-01-17T01:48:13.441Z,25.10
2023-01-17T01:50:42.301Z,27.60
2023-01-17T01:53:11.817Z,22.00
2023-01-17T01:55:42.665Z,25.80
2023-01-17T01:58:21.835Z,23.70
2023-01-17T02:00:51.617Z,24.40
2023-01-17T02:03:28.093Z,25.00
2023-01-17T02:06:05.124Z,24.10
2023-01-17T02:08:34.779Z,25.30
2023-01-17T02:11:03.595Z,23.50
2023-01-17T02:13:32.414Z,25.00
2023-01-17T02:16:15.574Z,25.70
2023-01-17T02:19:01.751Z,23.90
2023-01-17T02:21:58.760Z,27.80
2023-01-17T02:25:03.093Z,23.50
2023-01-17T02:28:18.155Z,22.20
2023-01-17T02:30:51.612Z,24.50
2023-01-17T02:33:54.859Z,24.30
2023-01-17T02:36:36.647Z,24.70
2023-01-17T02:39:44.097Z,25.20
2023-01-17T02:42:21.686Z,24.50
2023-01-17T02:44:50.424Z,24.00
2023-01-17T02:47:30.738Z,27.30
2023-01-17T02:50:14.798Z,24.90
2023-01-17T02:53:29.099Z,24.60
2023-01-17T02:56:13.657Z,27.40
2023-01-17T02:59:05.367Z,26.30
2023-01-17T03:02:41.570Z,24.90
2023-01-17T03:05:20.746Z,26.00
2023-01-17T03:07:52.277Z,26.70
2023-01-17T03:10:22.088Z,27.40
2023-01-17T03:12:56.028Z,27.60
2023-01-17T03:15:24.882Z,28.70
2023-01-17T03:17:58.921Z,28.00
2023-01-17T03:20:27.741Z,29.40
2023-01-17T03:22:56.693Z,29.30
2023-01-17T03:25:25.387Z,29.50
2023-01-17T03:27:54.145Z,29.90
2023-01-17T03:30:23.341Z,31.10
2023-01-17T03:32:52.152Z,32.60
2023-01-17T03:35:21.076Z,30.20
2023-01-17T03:37:49.828Z,32.40
2023-01-17T03:40:18.759Z,29.90
2023-01-17T03:42:47.511Z,30.90
2023-01-17T03:45:16.469Z,32.50
2023-01-17T03:47:45.276Z,32.20
2023-01-17T03:50:14.154Z,28.60
2023-01-17T03:52:42.914Z,30.10
2023-01-17T03:55:11.855Z,30.00
2023-01-17T03:57:40.846Z,27.20
2023-01-17T04:00:11.091Z,30.30
2023-01-17T04:02:39.911Z,30.00
2023-01-17T04:05:09.910Z,29.70
2023-01-17T04:07:38.693Z,29.70
2023-01-17T04:10:08.404Z,29.80
2023-01-17T04:12:37.103Z,29.50
2023-01-17T04:15:06.504Z,31.20
2023-01-17T04:17:35.642Z,29.30
2023-01-17T04:20:05.230Z,29.10
2023-01-17T04:22:34.057Z,35.00
2023-01-17T04:25:05.533Z,27.50
2023-01-17T04:27:34.254Z,30.10
2023-01-17T04:30:02.994Z,34.70
2023-01-17T04:32:31.761Z,28.50
2023-01-17T04:35:00.479Z,30.10
2023-01-17T04:37:29.207Z,33.60
2023-01-17T04:39:57.967Z,34.10
2023-01-17T04:42:26.856Z,30.50
2023-01-17T04:44:55.687Z,31.90
2023-01-17T04:47:24.530Z,28.60
2023-01-17T04:49:53.866Z,31.90
2023-01-17T04:52:22.624Z,30.50
2023-01-17T04:54:53.002Z,32.20
2023-01-17T04:57:21.696Z,33.30
2023-01-17T04:59:50.479Z,26.40
2023-01-17T05:02:19.488Z,25.60
2023-01-17T05:04:48.400Z,31.60
2023-01-17T05:07:17.173Z,28.20
2023-01-17T05:09:45.895Z,30.30
2023-01-17T05:12:14.670Z,27.70
2023-01-17T05:14:43.425Z,32.80
2023-01-17T05:17:12.273Z,30.10
2023-01-17T05:19:41.158Z,27.70
2023-01-17T05:22:15.952Z,26.90
2023-01-17T05:24:46.509Z,26.80
2023-01-17T05:27:15.833Z,28.20
2023-01-17T05:29:45.710Z,28.00
2023-01-17T05:32:14.479Z,28.60
2023-01-17T05:34:43.281Z,29.20
2023-01-17T05:37:12.117Z,27.60
2023-01-17T05:39:41.376Z,29.70
2023-01-17T05:42:11.427Z,27.60
2023-01-17T05:44:40.917Z,28.00
2023-01-17T05:47:09.752Z,27.40
2023-01-17T05:49:39.092Z,29.80
2023-01-17T05:52:07.991Z,26.40
2023-01-17T05:54:36.741Z,29.10
2023-01-17T05:57:05.537Z,28.70
2023-01-17T05:59:37.262Z,28.50
2023-01-17T06:02:06.377Z,26.60
2023-01-17T06:04:35.295Z,25.10
2023-01-17T06:07:04.209Z,28.60
2023-01-17T06:09:33.012Z,25.80
2023-01-17T06:12:01.768Z,27.80
2023-01-17T06:14:30.507Z,30.50
2023-01-17T06:16:59.256Z,29.40
2023-01-17T06:19:27.972Z,29.70
2023-01-17T06:21:56.703Z,29.00
2023-01-17T06:24:25.474Z,27.60
2023-01-17T06:26:54.199Z,25.80
2023-01-17T06:29:23.044Z,27.20
2023-01-17T06:31:51.957Z,30.00
2023-01-17T06:34:20.819Z,24.30
2023-01-17T06:36:49.539Z,24.60
2023-01-17T06:39:18.260Z,27.50
2023-01-17T06:41:47.060Z,26.30
2023-01-17T06:44:16.195Z,25.50
2023-01-17T06:46:45.277Z,27.30
2023-01-17T06:49:15.404Z,30.90
2023-01-17T06:51:44.269Z,25.20
2023-01-17T06:54:13.307Z,24.90
2023-01-17T06:56:42.061Z,26.20
2023-01-17T06:59:10.925Z,24.70
2023-01-17T07:01:40.390Z,26.90
2023-01-17T07:04:09.215Z,28.20
2023-01-17T07:06:38.140Z,30.50
2023-01-17T07:09:06.882Z,27.40
2023-01-17T07:11:35.756Z,25.00
2023-01-17T07:14:04.482Z,24.90
2023-01-17T07:16:34.707Z,22.30
2023-01-17T07:19:03.703Z,24.40
2023-01-17T07:21:32.510Z,27.50
2023-01-17T07:24:01.291Z,23.80
2023-01-17T07:26:30.063Z,23.20
2023-01-17T07:28:59.073Z,25.20
2023-01-17T07:31:27.865Z,24.70
2023-01-17T07:33:59.442Z,25.90
2023-01-17T07:36:28.455Z,25.30
2023-01-17T07:41:41.545Z,25.70
2023-01-17T07:44:14.085Z,21.70
2023-01-17T07:46:42.978Z,22.40
2023-01-17T07:49:11.803Z,22.90
2023-01-17T07:51:40.749Z,22.70
2023-01-17T07:54:11.828Z,26.10
2023-01-17T07:56:40.632Z,24.30
2023-01-17T07:59:09.444Z,22.00
2023-01-17T08:01:38.535Z,22.90
2023-01-17T08:04:07.547Z,21.90
2023-01-17T08:06:38.028Z,25.60
2023-01-17T08:09:06.782Z,23.50
2023-01-17T08:11:35.543Z,22.60
2023-01-17T08:14:05.034Z,23.10
2023-01-17T08:16:33.803Z,19.20
2023-01-17T08:19:02.576Z,21.60
2023-01-17T08:21:32.458Z,22.30
2023-01-17T08:24:01.201Z,23.00
2023-01-17T08:26:30.395Z,18.00
2023-01-17T08:29:01.206Z,21.20
2023-01-17T08:31:35.712Z,18.60
2023-01-17T08:34:04.651Z,18.60
2023-01-17T08:36:33.510Z,17.90
2023-01-17T08:39:02.308Z,18.90
2023-01-17T08:41:32.516Z,20.00
2023-01-17T08:44:01.324Z,21.70
2023-01-17T08:46:32.090Z,17.60
2023-01-17T08:49:03.017Z,23.40
2023-01-17T08:51:33.058Z,22.50
2023-01-17T08:54:01.798Z,19.80
2023-01-17T08:56:30.629Z,22.00
2023-01-17T08:58:59.493Z,23.60
2023-01-17T09:01:28.405Z,20.80
2023-01-17T09:03:57.292Z,18.10
2023-01-17T09:06:26.156Z,19.90
2023-01-17T09:08:55.062Z,20.20
2023-01-17T09:11:23.816Z,18.90
2023-01-17T09:13:52.548Z,19.40
2023-01-17T09:16:21.317Z,22.80
2023-01-17T09:18:54.676Z,18.90
2023-01-17T09:21:23.878Z,19.70
2023-01-17T09:23:53.868Z,22.40
2023-01-17T09:26:30.334Z,18.80
2023-01-17T09:28:59.282Z,20.60
2023-01-17T09:31:28.365Z,20.50
2023-01-17T09:33:59.024Z,21.20
2023-01-17T09:36:29.364Z,21.00
2023-01-17T09:38:59.211Z,17.60
2023-01-17T09:41:54.506Z,21.50
2023-01-17T09:45:02.382Z,21.10
2023-01-17T09:47:41.466Z,19.50
2023-01-17T09:50:43.995Z,16.90
2023-01-17T09:53:21.075Z,21.80
2023-01-17T09:56:01.394Z,19.70
2023-01-17T09:59:10.733Z,19.80
2023-01-17T10:02:25.003Z,19.00
2023-01-17T10:05:21.006Z,19.90
2023-01-17T10:08:38.271Z,21.50
2023-01-17T10:11:56.104Z,20.10
2023-01-17T10:15:40.644Z,19.10
2023-01-17T10:18:59.559Z,18.60
2023-01-17T10:22:10.511Z,19.10
2023-01-17T10:25:27.586Z,16.80
2023-01-17T10:28:13.487Z,19.50
2023-01-17T10:30:50.683Z,20.40
2023-01-17T10:33:27.616Z,22.00
2023-01-17T10:36:06.167Z,15.80
2023-01-17T10:38:39.055Z,17.30
2023-01-17T10:41:22.608Z,18.50
2023-01-17T10:44:20.462Z,18.60
2023-01-17T10:47:03.728Z,21.30
2023-01-17T10:52:19.379Z,23.40
2023-01-17T10:54:59.287Z,20.40
2023-01-17T10:57:28.458Z,22.60
2023-01-17T11:00:00.887Z,20.70
2023-01-17T11:02:37.044Z,17.00
2023-01-17T11:05:21.943Z,20.80
2023-01-17T11:08:02.941Z,22.60
2023-01-17T11:10:39.926Z,18.40
2023-01-17T11:13:38.904Z,21.90
2023-01-17T11:16:19.601Z,21.20
2023-01-17T11:19:27.923Z,16.20
2023-01-17T11:22:05.052Z,15.50
2023-01-17T11:24:42.199Z,16.00
2023-01-17T11:27:30.458Z,15.80
2023-01-17T11:30:05.272Z,14.70
2023-01-17T11:32:34.932Z,19.90
2023-01-17T11:35:26.274Z,19.40
2023-01-17T11:38:10.988Z,22.80
2023-01-17T11:40:45.130Z,19.10
2023-01-17T11:43:27.794Z,19.70
2023-01-17T11:46:05.854Z,17.80
2023-01-17T11:48:38.907Z,15.80
2023-01-17T11:54:28.352Z,14.70
2023-01-17T11:57:01.832Z,23.60
2023-01-17T11:59:37.695Z,17.70
2023-01-17T12:02:43.631Z,19.10
2023-01-17T12:05:54.005Z,14.70
2023-01-17T12:08:53.047Z,17.80
2023-01-17T12:12:31.044Z,19.70
2023-01-17T12:15:23.500Z,19.30
2023-01-17T12:18:13.711Z,13.70
2023-01-17T12:21:17.598Z,14.30
2023-01-17T12:23:56.246Z,18.50
2023-01-17T12:26:33.837Z,16.90
2023-01-17T12:29:24.742Z,14.10
2023-01-17T12:32:13.694Z,14.00
2023-01-17T12:35:15.759Z,16.40
2023-01-17T12:38:00.261Z,16.70
2023-01-17T12:40:50.045Z,20.70
2023-01-17T12:43:43.403Z,15.40
2023-01-17T12:46:27.391Z,16.00
2023-01-17T12:49:17.186Z,14.50
2023-01-17T12:51:50.471Z,17.30
2023-01-17T12:54:48.214Z,14.90
2023-01-17T12:57:27.747Z,16.80
2023-01-17T13:00:19.865Z,17.50
2023-01-17T13:03:23.326Z,19.80
2023-01-17T13:05:52.725Z,18.00
2023-01-17T13:08:46.776Z,19.50
2023-01-17T13:11:28.853Z,16.10
2023-01-17T13:14:00.070Z,17.60
2023-01-17T13:16:29.046Z,18.60
2023-01-17T13:19:05.182Z,18.90
2023-01-17T13:21:35.592Z,14.40
2023-01-17T13:24:20.860Z,16.40
2023-01-17T13:27:12.581Z,18.10
2023-01-17T13:30:27.747Z,25.20
2023-01-17T13:33:12.393Z,14.20
2023-01-17T13:36:14.005Z,18.20
2023-01-17T13:39:15.991Z,16.50
2023-01-17T13:42:11.105Z,17.60
2023-01-17T13:44:40.005Z,14.90
2023-01-17T13:47:29.900Z,15.30
2023-01-17T13:49:59.518Z,14.80
2023-01-17T13:52:33.181Z,15.90
2023-01-17T13:55:05.578Z,17.30
2023-01-17T13:57:46.951Z,15.80
2023-01-17T14:00:21.657Z,16.00
2023-01-17T14:02:52.871Z,18.40
2023-01-17T14:05:56.251Z,14.70
2023-01-17T14:08:27.476Z,16.30
2023-01-17T14:11:09.834Z,17.40
2023-01-17T14:13:40.248Z,16.60
2023-01-17T14:16:29.358Z,15.40
2023-01-17T14:18:58.269Z,17.90
2023-01-17T14:21:33.681Z,12.90
2023-01-17T14:24:13.358Z,14.20
2023-01-17T14:26:42.117Z,20.70
2023-01-17T14:29:47.220Z,11.90
2023-01-17T14:32:29.739Z,11.00
2023-01-17T14:34:59.178Z,10.10
2023-01-17T14:37:50.805Z,12.30
2023-01-17T14:40:26.565Z,12.00
2023-01-17T14:43:13.240Z,11.90
2023-01-17T14:45:43.909Z,16.00
2023-01-17T14:48:22.665Z,14.50
2023-01-17T14:50:55.050Z,14.50
2023-01-17T14:53:29.166Z,16.30
2023-01-17T14:56:13.372Z,14.40
2023-01-17T14:58:42.660Z,14.70
2023-01-17T15:01:15.928Z,18.00
2023-01-17T15:03:51.657Z,15.60
2023-01-17T15:06:33.388Z,16.30
2023-01-17T15:09:29.045Z,20.80
2023-01-17T15:11:58.326Z,17.40
2023-01-17T15:14:38.361Z,18.30
2023-01-17T15:17:24.661Z,19.20
2023-01-17T15:19:59.822Z,17.20
2023-01-17T15:22:29.947Z,19.20
2023-01-17T15:25:00.387Z,22.40
2023-01-17T15:27:29.459Z,21.30
2023-01-17T15:30:02.543Z,20.40
